ENSH/SVJ METAR and TAF weather

Enter ICAO airport designator
Station Type Date Time Source
ENSH METAR 2021/09/23 20:20 UTC NOAA

ENSH 232020Z 24006KT 210V270 9999 VCSH SCT022 BKN042 09/05 Q0993 RMK WIND 150FT 21006KT 170V250


Station Type Date Time Source
ENSH Decoded METAR 2021/09/23 20:20 UTC NOAA

Svolvaer / Helle, Norway (ENSH) 68-15N 014-40E 9M
Sep 23, 2021 - 04:20 PM EDT / 2021.09.23 2020 UTC
Wind: from the WSW (240 degrees) at 7 MPH (6 KT) (direction variable):0
Visibility: greater than 7 mile(s):0
Sky conditions: mostly cloudy
Weather: showers in the vicinity
Temperature: 48 F (9 C)
Dew Point: 41 F (5 C)
Relative Humidity: 75%
Pressure (altimeter): 29.32 in. Hg (0993 hPa)
ob: ENSH 232020Z 24006KT 210V270 9999 VCSH SCT022 BKN042 09/05 Q0993 RMK WIND 150FT 21006KT 170V250
cycle: 20

Station Type Date Time Source
ENSH TAF UTC NOAA

Error!

Example: see airport list